John H Macmillan Jr — WDB9907 — position and weather

sailwx.info

Track history (hours):
 
Tides and Currents Weather Stations Pressure Air Temp Water Temp Dewpoint Dewpoint Depression Visibility Wind Speed Wind Dir Waves Ship Positions

John H Macmillan Jr

Owner: American River Transportation Company, St Louis, MO. More information available from US FCC via Universal Licensing System and Coast Guard Vessel Documentation Center.

Last reported at 2016-Feb-13 19:34 UTC. Time now 2016-Feb-14 14:45 UTC.
Position N 32°01' W 091°05'.

Length 55 m.

Type: Towing. MMSI: 366984920.

Date/timePositionNaut miles runAvg speedWind from/ knotsBaromVisibWave heightAir tempDewpointWater temp
2016-Feb-13 19:34N 32°01' W 091°05'7 6.8
2016-Feb-13 18:33N 32°07' W 091°07'6 5.6
2016-Feb-13 17:34N 32°09' W 091°00'8 8.5
2016-Feb-13 16:34N 32°17' W 090°57'5 4.7
2016-Feb-13 15:34N 32°21' W 090°59'7 7.3
2016-Feb-13 14:34N 32°27' W 091°05'8 8.1
2016-Feb-13 13:33N 32°35' W 091°07'  
2016-Feb-04 05:28N 32°43' W 091°03'4 3.9
2016-Feb-04 04:33N 32°41' W 091°06'0 0.1
2016-Feb-04 03:33N 32°41' W 091°06'0 0.0
2016-Feb-04 02:13N 32°41' W 091°06'2 2.1
2016-Feb-04 01:20N 32°40' W 091°08'4 5.0
2016-Feb-04 00:29N 32°36' W 091°08'5 5.0
2016-Feb-03 23:34N 32°31' W 091°06'5 4.8
2016-Feb-03 22:33N 32°27' W 091°04'5 5.0
2016-Feb-03 21:34N 32°24' W 090°59'3 2.5
2016-Feb-03 20:34N 32°21' W 090°60'  
Track history (hours):
 
Tides and Currents Weather Stations Pressure Air Temp Water Temp Dewpoint Dewpoint Depression Visibility Wind Speed Wind Dir Waves Ship Positions

John H Macmillan Jr

Owner: American River Transportation Company, St Louis, MO. More information available from US FCC via Universal Licensing System and Coast Guard Vessel Documentation Center.

Last reported at 2016-Feb-13 19:34 UTC. Time now 2016-Feb-14 14:45 UTC.
Position N 32°01' W 091°05'.

Length 55 m.

Type: Towing. MMSI: 366984920.

Date/timePositionNaut miles runAvg speedWind from/ knotsBaromVisibWave heightAir tempDewpointWater temp
2016-Feb-13 19:34N 32°01' W 091°05'7 6.8
2016-Feb-13 18:33N 32°07' W 091°07'6 5.6
2016-Feb-13 17:34N 32°09' W 091°00'8 8.5
2016-Feb-13 16:34N 32°17' W 090°57'5 4.7
2016-Feb-13 15:34N 32°21' W 090°59'7 7.3
2016-Feb-13 14:34N 32°27' W 091°05'8 8.1
2016-Feb-13 13:33N 32°35' W 091°07'  
2016-Feb-04 05:28N 32°43' W 091°03'4 3.9
2016-Feb-04 04:33N 32°41' W 091°06'0 0.1
2016-Feb-04 03:33N 32°41' W 091°06'0 0.0
2016-Feb-04 02:13N 32°41' W 091°06'2 2.1
2016-Feb-04 01:20N 32°40' W 091°08'4 5.0
2016-Feb-04 00:29N 32°36' W 091°08'5 5.0
2016-Feb-03 23:34N 32°31' W 091°06'5 4.8
2016-Feb-03 22:33N 32°27' W 091°04'5 5.0
2016-Feb-03 21:34N 32°24' W 090°59'3 2.5
2016-Feb-03 20:34N 32°21' W 090°60'  

Dump ship's entire track history